Time;durP1;ratioP1;P1;durP2;ratioP2;P2;SDS_P1;SDS_P2;PMS_P1;PMS_P2;Temp;Humidity;BMP_temperature;BMP_pressure;BME280_temperature;BME280_humidity;BME280_pressure;Samples;Min_cycle;Max_cycle;Signal;HPM_P1;HPM_P2
2022/11/21 00:01:48;;;;;;;36.33;24.17;;;;;;;0.11;77.05;100286.27;1719440;81;21152;-85
2022/11/21 00:04:15;;;;;;;40.63;26.25;;;;;;;0.14;77.05;100289.02;1718013;81;21041;-85
2022/11/21 00:06:43;;;;;;;40.58;26.42;;;;;;;0.22;77.16;100292.46;1719729;81;21163;-86
2022/11/21 00:09:10;;;;;;;44.30;28.15;;;;;;;0.28;77.21;100290.22;1714712;81;21528;-85
2022/11/21 00:11:37;;;;;;;45.33;27.07;;;;;;;0.35;77.21;100284.20;1718237;81;21734;-87
2022/11/21 00:14:04;;;;;;;51.30;29.90;;;;;;;0.45;77.24;100289.91;1716915;82;21454;-86
2022/11/21 00:16:30;;;;;;;46.40;29.32;;;;;;;0.50;77.16;100282.90;1730321;81;21133;-86
2022/11/21 00:18:57;;;;;;;49.27;29.27;;;;;;;0.51;77.05;100276.92;1716668;83;21990;-87
2022/11/21 00:21:26;;;;;;;44.58;29.07;;;;;;;0.55;77.08;100287.95;1720421;81;36572;-87
2022/11/21 00:23:53;;;;;;;47.25;29.35;;;;;;;0.61;77.06;100295.59;1722314;81;21752;-87
2022/11/21 00:26:19;;;;;;;47.62;30.02;;;;;;;0.65;77.11;100293.24;1714695;82;21082;-87
2022/11/21 00:28:48;;;;;;;46.65;28.65;;;;;;;0.69;77.05;100294.31;1716703;82;21288;-87
2022/11/21 00:31:21;;;;;;;48.80;30.77;;;;;;;0.72;77.03;100291.50;1718465;81;21153;-87
2022/11/21 00:33:48;;;;;;;45.78;30.00;;;;;;;0.77;77.14;100295.66;1687253;83;21062;-87
2022/11/21 00:36:15;;;;;;;49.53;32.13;;;;;;;0.80;76.95;100304.89;1685589;83;21733;-87
2022/11/21 00:38:48;;;;;;;49.90;30.92;;;;;;;0.78;76.90;100304.80;1690769;83;21122;-87
2022/11/21 00:41:14;;;;;;;51.90;32.63;;;;;;;0.80;76.94;100310.06;1717479;83;21622;-88
2022/11/21 00:43:41;;;;;;;47.48;31.57;;;;;;;0.84;77.01;100317.20;1721000;81;21073;-85
2022/11/21 00:46:09;;;;;;;48.83;31.70;;;;;;;0.88;77.03;100319.19;1714277;81;21068;-89
2022/11/21 00:48:36;;;;;;;48.40;33.05;;;;;;;0.90;76.98;100316.66;1721733;81;21765;-89
2022/11/21 00:51:02;;;;;;;53.08;33.75;;;;;;;0.88;76.92;100324.38;1720274;81;21042;-88
2022/11/21 00:53:31;;;;;;;50.03;32.42;;;;;;;0.88;76.91;100329.93;1736181;81;21066;-89
2022/11/21 00:55:58;;;;;;;46.30;30.32;;;;;;;0.84;76.88;100327.56;1701459;82;21580;-88
2022/11/21 00:58:32;;;;;;;44.75;29.23;;;;;;;0.85;76.94;100327.19;1708144;82;21106;-88
2022/11/21 01:01:09;;;;;;;41.80;27.48;;;;;;;0.83;76.87;100327.51;1721882;82;21782;-87
2022/11/21 01:03:35;;;;;;;41.80;26.55;;;;;;;0.78;76.72;100328.11;1716331;82;21537;-85
2022/11/21 01:06:11;;;;;;;36.38;24.63;;;;;;;0.74;76.74;100323.56;1715010;82;21064;-85
2022/11/21 01:08:39;;;;;;;39.63;25.45;;;;;;;0.73;76.73;100318.28;1667028;83;21068;-86
2022/11/21 01:11:10;;;;;;;37.55;24.82;;;;;;;0.72;76.74;100307.05;1696572;81;21093;-90
2022/11/21 01:13:52;;;;;;;42.53;27.25;;;;;;;0.76;76.75;100301.22;1712677;81;21212;-90
2022/11/21 01:16:21;;;;;;;43.85;27.25;;;;;;;0.78;76.74;100310.38;1704526;81;21141;-86
2022/11/21 01:18:48;;;;;;;47.43;27.00;;;;;;;0.82;76.81;100313.63;1678564;85;21134;-88
2022/11/21 01:21:22;;;;;;;39.60;26.10;;;;;;;0.86;76.76;100316.88;1654222;84;21602;-88
2022/11/21 01:23:48;;;;;;;;;;;;;;;0.83;76.68;100314.14;1684351;83;21273;-84
2022/11/21 01:26:20;;;;;;;39.53;25.68;;;;;;;0.82;76.62;100315.34;1644558;85;22558;-84
2022/11/21 01:28:47;;;;;;;40.98;27.85;;;;;;;0.79;76.61;100309.59;1637042;85;21073;-84
2022/11/21 01:31:21;;;;;;;45.03;28.40;;;;;;;0.82;76.72;100303.68;1662913;84;22087;-85
2022/11/21 01:33:48;;;;;;;;;;;;;;;0.84;76.74;100303.36;1642992;85;21070;-88
2022/11/21 01:36:27;;;;;;;45.45;28.27;;;;;;;0.86;76.73;100305.22;1694006;83;20470;-88
2022/11/21 01:38:55;;;;;;;44.70;26.27;;;;;;;0.90;76.80;100300.73;1636831;86;22535;-89
2022/11/21 01:41:36;;;;;;;41.55;25.37;;;;;;;0.93;76.74;100294.41;1647643;85;21078;-88
2022/11/21 01:44:23;;;;;;;41.80;26.02;;;;;;;0.97;76.81;100305.83;1656427;84;21086;-88
2022/11/21 01:46:50;;;;;;;38.38;25.30;;;;;;;1.00;76.66;100307.31;1677610;84;21183;-89
2022/11/21 01:49:26;;;;;;;47.30;28.85;;;;;;;1.03;76.69;100310.47;1666099;84;21684;-92
2022/11/21 01:52:08;;;;;;;49.42;29.57;;;;;;;1.05;76.66;100308.85;1646311;85;21769;-91
2022/11/21 01:55:02;;;;;;;53.08;30.60;;;;;;;1.03;76.57;100306.17;1655092;84;21562;-90
2022/11/21 01:57:41;;;;;;;;;;;;;;;1.02;76.56;100312.59;1651469;84;21130;-90
2022/11/21 02:00:20;;;;;;;51.50;29.72;;;;;;;1.03;76.51;100313.06;1640927;84;20409;-91
2022/11/21 02:03:03;;;;;;;47.88;29.82;;;;;;;0.97;76.48;100304.13;1732496;81;21518;-90
2022/11/21 02:05:36;;;;;;;46.80;28.75;;;;;;;0.96;76.54;100303.66;1715781;82;22620;-91
2022/11/21 02:08:35;;;;;;;44.70;28.77;;;;;;;0.97;76.59;100302.83;1699720;84;21098;-91
2022/11/21 02:11:43;;;;;;;43.92;26.52;;;;;;;1.00;76.63;100301.25;1710559;82;21065;-91
2022/11/21 02:14:16;;;;;;;44.67;26.73;;;;;;;1.01;76.55;100293.94;1672899;83;21475;-91
2022/11/21 02:16:44;;;;;;;51.65;29.37;;;;;;;1.05;76.67;100295.89;1705186;83;21102;-88
2022/11/21 02:19:26;;;;;;;48.50;30.62;;;;;;;1.08;76.72;100293.48;1704676;82;22533;-88
2022/11/21 02:22:04;;;;;;;44.80;28.07;;;;;;;1.11;76.68;100289.78;1697390;82;21033;-88
2022/11/21 02:24:45;;;;;;;48.95;29.40;;;;;;;1.11;76.58;100288.48;1702129;82;21080;-88
2022/11/21 02:27:11;;;;;;;47.33;29.25;;;;;;;1.10;76.60;100282.80;1694816;83;21367;-90
2022/11/21 02:29:39;;;;;;;48.52;27.82;;;;;;;1.10;76.62;100282.38;1692140;82;21053;-88
2022/11/21 02:32:08;;;;;;;44.83;28.38;;;;;;;1.11;76.65;100276.81;1687092;82;21893;-88
2022/11/21 02:34:35;;;;;;;46.25;27.85;;;;;;;1.14;76.67;100280.85;1702694;82;21084;-89
2022/11/21 02:37:01;;;;;;;49.45;29.60;;;;;;;1.14;76.59;100284.73;1698022;82;21550;-88
2022/11/21 02:39:34;;;;;;;51.30;28.23;;;;;;;1.12;76.62;100286.36;1703713;83;21352;-87
2022/11/21 02:42:32;;;;;;;51.80;31.33;;;;;;;1.13;76.63;100289.04;1684574;83;21482;-89
2022/11/21 02:45:22;;;;;;;47.85;29.00;;;;;;;1.07;76.60;100275.75;1692816;83;21724;-89
2022/11/21 02:47:51;;;;;;;45.50;29.40;;;;;;;1.14;76.68;100288.22;1673143;84;21084;-91
2022/11/21 02:50:40;;;;;;;46.63;29.20;;;;;;;1.12;76.56;100282.47;1695270;83;21072;-91
2022/11/21 02:53:15;;;;;;;46.48;28.80;;;;;;;1.14;76.60;100283.03;1698324;83;21193;-91
2022/11/21 02:55:43;;;;;;;49.95;29.80;;;;;;;1.14;76.64;100283.03;1715173;82;21658;-86
2022/11/21 02:58:09;;;;;;;55.03;30.97;;;;;;;1.12;76.49;100278.58;1706751;82;21230;-84
2022/11/21 03:00:41;;;;;;;48.83;30.88;;;;;;;1.07;76.53;100283.53;1702874;82;21326;-87
2022/11/21 03:03:08;;;;;;;54.85;32.38;;;;;;;1.03;76.64;100285.44;1717217;82;21043;-87
2022/11/21 03:05:36;;;;;;;51.13;32.42;;;;;;;1.10;76.63;100299.64;1709728;82;21075;-87
2022/11/21 03:08:03;;;;;;;52.05;31.33;;;;;;;1.09;76.62;100304.32;1714481;82;21052;-91
2022/11/21 03:10:30;;;;;;;52.83;31.68;;;;;;;1.11;76.76;100311.81;1703713;82;21806;-91
2022/11/21 03:13:01;;;;;;;50.83;30.88;;;;;;;1.12;76.80;100310.57;1702797;82;21106;-91
2022/11/21 03:15:34;;;;;;;48.95;31.30;;;;;;;1.14;76.69;100316.73;1707596;82;21283;-89
2022/11/21 03:18:01;;;;;;;51.90;31.50;;;;;;;1.13;76.70;100323.16;1707909;82;21055;-88
2022/11/21 03:20:36;;;;;;;53.30;33.05;;;;;;;1.16;76.79;100325.89;1680417;83;21061;-89
2022/11/21 03:23:04;;;;;;;54.48;32.33;;;;;;;1.19;76.75;100335.15;1701046;82;21785;-90
2022/11/21 03:25:33;;;;;;;52.65;32.73;;;;;;;1.20;76.69;100336.92;1707049;83;21057;-91
2022/11/21 03:28:00;;;;;;;50.52;31.30;;;;;;;1.22;76.75;100334.03;1709239;83;21090;-88
2022/11/21 03:30:27;;;;;;;47.00;29.12;;;;;;;1.23;76.63;100341.41;1710049;82;21074;-89
2022/11/21 03:32:58;;;;;;;48.78;29.07;;;;;;;1.20;76.62;100339.51;1728512;82;21739;-89
2022/11/21 03:35:25;;;;;;;45.58;27.42;;;;;;;1.19;76.57;100340.34;1703629;82;21789;-87
2022/11/21 03:37:52;;;;;;;42.80;26.93;;;;;;;1.15;76.51;100330.20;1695797;82;21105;-87
2022/11/21 03:40:19;;;;;;;46.75;28.50;;;;;;;1.15;76.56;100334.50;1712418;82;21069;-87
2022/11/21 03:42:48;;;;;;;49.88;30.17;;;;;;;1.15;76.54;100334.09;1710245;82;21606;-87
2022/11/21 03:45:14;;;;;;;46.65;28.83;;;;;;;1.15;76.55;100331.49;1709085;82;21077;-83
2022/11/21 03:47:41;;;;;;;48.42;28.62;;;;;;;1.19;76.58;100327.78;1710591;82;22430;-83
2022/11/21 03:50:09;;;;;;;45.33;27.60;;;;;;;1.22;76.55;100324.05;1687072;82;21043;-84
2022/11/21 03:52:36;;;;;;;46.50;27.50;;;;;;;1.20;76.51;100323.95;1715018;82;21040;-84
2022/11/21 03:55:03;;;;;;;45.75;26.37;;;;;;;1.23;76.51;100325.84;1701861;82;21464;-84
2022/11/21 03:57:30;;;;;;;50.52;28.77;;;;;;;1.20;76.45;100322.66;1700410;82;21082;-86
2022/11/21 03:59:57;;;;;;;54.42;31.97;;;;;;;1.19;76.37;100324.78;1701128;82;22587;-86
2022/11/21 04:02:23;;;;;;;59.30;34.10;;;;;;;1.16;76.35;100329.41;1691086;82;21116;-85
2022/11/21 04:04:50;;;;;;;58.05;33.02;;;;;;;1.16;76.36;100334.59;1696043;82;21527;-86
2022/11/21 04:07:18;;;;;;;49.27;29.63;;;;;;;1.14;76.29;100326.22;1686626;82;21062;-86
2022/11/21 04:09:45;;;;;;;47.10;28.52;;;;;;;1.12;76.23;100332.61;1707533;81;21148;-87
2022/11/21 04:12:11;;;;;;;45.28;27.37;;;;;;;1.14;76.29;100333.99;1710191;82;21736;-86
2022/11/21 04:14:38;;;;;;;50.90;30.12;;;;;;;1.13;76.25;100331.81;1704313;82;21080;-87
2022/11/21 04:17:05;;;;;;;47.25;28.67;;;;;;;1.12;76.17;100340.80;1703934;82;21053;-86
2022/11/21 04:19:33;;;;;;;45.38;27.35;;;;;;;1.12;76.24;100351.16;1702751;82;21071;-86
2022/11/21 04:22:00;;;;;;;45.70;28.30;;;;;;;1.12;76.23;100347.27;1703539;82;21061;-86
2022/11/21 04:24:33;;;;;;;43.17;28.10;;;;;;;1.12;76.19;100345.56;1703422;82;22591;-86
2022/11/21 04:27:00;;;;;;;44.93;27.53;;;;;;;1.11;76.14;100346.80;1686941;82;21054;-86
2022/11/21 04:29:27;;;;;;;43.13;26.48;;;;;;;1.12;76.15;100347.27;1703461;82;21143;-86
2022/11/21 04:31:54;;;;;;;42.70;27.82;;;;;;;1.09;76.08;100341.91;1702511;82;21544;-86
2022/11/21 04:34:23;;;;;;;42.50;26.00;;;;;;;1.08;76.10;100341.02;1701606;82;21563;-86
2022/11/21 04:36:50;;;;;;;45.65;27.42;;;;;;;1.06;76.09;100336.16;1714220;82;22596;-86
2022/11/21 04:39:17;;;;;;;47.38;29.45;;;;;;;1.06;76.06;100333.98;1704186;83;21565;-86
2022/11/21 04:41:44;;;;;;;47.67;30.62;;;;;;;1.06;76.09;100330.97;1707150;82;21550;-84
2022/11/21 04:44:10;;;;;;;50.85;32.33;;;;;;;1.01;75.90;100325.92;1711901;82;21160;-85
2022/11/21 04:46:37;;;;;;;56.58;34.53;;;;;;;0.99;76.06;100328.84;1680907;84;21146;-86
2022/11/21 04:49:05;;;;;;;52.08;31.57;;;;;;;0.98;76.04;100320.59;1653683;85;21811;-87
2022/11/21 04:51:38;;;;;;;43.55;27.27;;;;;;;0.97;76.10;100319.67;1653360;85;21062;-87
2022/11/21 04:54:05;;;;;;;46.93;29.57;;;;;;;0.97;76.10;100309.31;1663041;85;21634;-85
2022/11/21 04:56:31;;;;;;;59.60;35.33;;;;;;;1.01;76.12;100309.49;1650644;84;21089;-83
2022/11/21 04:58:58;;;;;;;52.67;31.82;;;;;;;1.00;76.01;100306.43;1656444;84;21709;-84
2022/11/21 05:01:25;;;;;;;45.12;28.47;;;;;;;1.00;76.05;100307.31;1674424;84;21819;-83
2022/11/21 05:03:52;;;;;;;46.18;29.60;;;;;;;1.00;76.03;100305.14;1654420;84;21081;-85
2022/11/21 05:06:25;;;;;;;49.83;29.27;;;;;;;1.01;76.07;100305.61;1662923;84;21100;-86
2022/11/21 05:08:52;;;;;;;56.83;33.58;;;;;;;1.01;76.01;100309.08;1660356;84;21592;-86
2022/11/21 05:14:05;;;;;;;43.15;28.92;;;;;;;1.01;75.98;100315.56;1661972;84;21963;-87
2022/11/21 05:16:34;;;;;;;50.20;30.90;;;;;;;1.01;76.02;100322.04;1661289;84;21079;-87
2022/11/21 05:19:02;;;;;;;55.48;34.05;;;;;;;0.99;76.06;100319.77;1658555;86;21082;-85
2022/11/21 05:21:35;;;;;;;58.78;34.75;;;;;;;0.99;76.06;100316.30;1646077;84;21610;-89
2022/11/21 05:24:01;;;;;;;71.00;39.92;;;;;;;1.01;76.10;100321.16;1673637;84;21574;-83
2022/11/21 05:26:29;;;;;;;69.90;40.23;;;;;;;1.02;76.10;100317.77;1677824;84;21769;-87
2022/11/21 05:28:56;;;;;;;59.42;35.25;;;;;;;1.02;76.08;100320.37;1666392;84;21069;-85
2022/11/21 05:31:22;;;;;;;57.08;34.63;;;;;;;1.02;76.05;100319.95;1664542;84;21114;-82
2022/11/21 05:33:49;;;;;;;47.03;30.85;;;;;;;1.02;76.06;100321.66;1666694;84;21070;-81
2022/11/21 05:38:57;;;;;;;53.60;33.55;;;;;;;1.08;76.07;100315.52;1819803;77;21977;-83
2022/11/21 05:41:23;;;;;;;51.42;31.17;;;;;;;1.04;76.06;100314.45;1799790;78;21051;-81
2022/11/21 05:43:50;;;;;;;47.45;30.45;;;;;;;1.04;76.05;100317.04;1803267;78;21727;-82
2022/11/21 05:46:19;;;;;;;54.75;32.95;;;;;;;1.00;75.89;100317.68;1802433;78;21073;-82
2022/11/21 05:48:47;;;;;;;49.98;32.17;;;;;;;1.00;75.88;100312.91;1791553;78;21107;-82
2022/11/21 05:51:14;;;;;;;47.65;30.20;;;;;;;0.99;75.85;100310.70;1793063;78;21058;-84
2022/11/21 05:53:41;;;;;;;44.80;29.02;;;;;;;1.01;75.91;100310.38;1793612;79;21038;-84
2022/11/21 05:56:12;;;;;;;45.20;28.17;;;;;;;1.03;75.91;100311.35;1800074;78;21747;-82
2022/11/21 05:58:39;;;;;;;46.35;28.90;;;;;;;1.03;75.76;100317.83;1799917;78;21282;-82
2022/11/21 06:01:06;;;;;;;42.70;26.48;;;;;;;1.02;75.74;100322.95;1792392;78;21094;-83
2022/11/21 06:03:36;;;;;;;44.55;26.87;;;;;;;1.01;75.65;100319.86;1797156;78;21109;-83
2022/11/21 06:06:10;;;;;;;44.93;28.15;;;;;;;0.99;75.58;100319.77;1778270;78;21049;-86
2022/11/21 06:08:45;;;;;;;40.78;27.13;;;;;;;0.99;75.50;100323.66;1794198;78;21761;-83
2022/11/21 06:11:14;;;;;;;43.48;28.42;;;;;;;0.96;75.38;100315.73;1793467;78;21710;-83
2022/11/21 06:13:41;;;;;;;42.05;27.87;;;;;;;0.91;75.37;100319.34;1800822;78;21030;-83
2022/11/21 06:16:16;;;;;;;42.10;27.87;;;;;;;0.89;75.33;100318.36;1796453;78;21062;-84
2022/11/21 06:18:48;;;;;;;44.08;27.80;;;;;;;0.87;75.23;100315.20;1781395;78;21042;-85
2022/11/21 06:21:27;;;;;;;43.60;27.25;;;;;;;0.86;75.28;100327.24;1793712;78;21765;-83
2022/11/21 06:23:55;;;;;;;43.42;28.60;;;;;;;0.85;75.18;100328.07;1796248;78;21874;-87
2022/11/21 06:26:24;;;;;;;44.05;27.13;;;;;;;0.83;75.10;100337.87;1793362;78;21068;-87
2022/11/21 06:28:51;;;;;;;41.25;28.00;;;;;;;0.81;75.05;100335.56;1800081;78;21066;-87
2022/11/21 06:31:20;;;;;;;44.00;27.58;;;;;;;0.78;75.11;100337.17;1794178;78;21033;-83
2022/11/21 06:33:49;;;;;;;51.35;28.20;;;;;;;0.78;75.03;100335.87;1793861;78;21761;-83
2022/11/21 06:36:16;;;;;;;47.65;31.12;;;;;;;0.77;75.03;100342.30;1795817;78;21047;-83
2022/11/21 06:38:43;;;;;;;47.25;29.70;;;;;;;0.75;75.03;100344.80;1764521;79;21043;-83
2022/11/21 06:41:19;;;;;;;46.92;29.45;;;;;;;0.82;75.18;100350.31;1795513;78;21244;-83
2022/11/21 06:43:45;;;;;;;43.40;28.77;;;;;;;0.84;75.06;100353.47;1795375;78;21070;-83
2022/11/21 06:46:12;;;;;;;43.95;28.60;;;;;;;0.80;74.99;100357.11;1795375;79;22538;-83
2022/11/21 06:48:39;;;;;;;49.25;29.32;;;;;;;0.81;75.06;100354.99;1797602;78;21088;-83
2022/11/21 06:51:10;;;;;;;44.95;28.67;;;;;;;0.82;75.09;100353.80;1801807;78;22196;-83
2022/11/21 06:53:36;;;;;;;42.98;28.47;;;;;;;0.86;75.21;100355.75;1745915;81;21026;-83
2022/11/21 06:56:03;;;;;;;45.65;30.55;;;;;;;0.93;75.24;100364.78;1734497;80;20981;-83
2022/11/21 06:58:31;;;;;;;45.85;29.40;;;;;;;0.96;75.10;100360.67;1723571;81;21761;-83
2022/11/21 07:00:57;;;;;;;46.55;30.00;;;;;;;0.99;75.05;100362.53;1753085;81;21044;-85
2022/11/21 07:03:24;;;;;;;44.00;29.27;;;;;;;1.05;75.10;100359.39;1745536;81;21042;-83
2022/11/21 07:05:51;;;;;;;44.35;28.25;;;;;;;1.13;75.02;100359.45;1740319;81;21045;-83
2022/11/21 07:08:19;;;;;;;40.00;27.67;;;;;;;1.19;74.97;100353.71;1740274;81;21183;-84
2022/11/21 07:10:49;;;;;;;43.85;27.85;;;;;;;1.26;74.87;100359.70;1750537;81;22861;-85
2022/11/21 07:13:24;;;;;;;43.95;28.60;;;;;;;1.33;74.82;100360.53;1740609;81;21103;-83
2022/11/21 07:15:55;;;;;;;45.23;28.32;;;;;;;1.40;74.76;100356.19;1742642;81;21051;-83
2022/11/21 07:18:22;;;;;;;44.83;30.37;;;;;;;1.47;74.72;100359.61;1768097;80;21093;-83
2022/11/21 07:20:50;;;;;;;39.15;25.92;;;;;;;1.57;74.64;100368.78;1741409;81;21051;-83
2022/11/21 07:23:17;;;;;;;40.78;27.00;;;;;;;1.60;74.42;100363.77;1746519;81;22021;-83
2022/11/21 07:25:44;;;;;;;37.55;25.50;;;;;;;1.61;74.35;100366.84;1743438;81;21318;-84
2022/11/21 07:28:10;;;;;;;39.70;27.65;;;;;;;1.68;74.42;100366.78;1749047;80;21086;-84
2022/11/21 07:30:37;;;;;;;41.20;26.68;;;;;;;1.74;74.26;100361.50;1758979;80;21030;-83
2022/11/21 07:33:05;;;;;;;35.73;23.85;;;;;;;1.78;74.12;100359.09;1764366;80;21082;-83
2022/11/21 07:35:33;;;;;;;43.55;27.13;;;;;;;1.77;74.00;100360.80;1734071;79;21860;-83
2022/11/21 07:38:00;;;;;;;36.80;23.75;;;;;;;1.79;73.96;100360.47;1738854;81;21075;-83
2022/11/21 07:40:27;;;;;;;33.38;23.38;;;;;;;1.80;73.88;100360.94;1754661;81;21565;-83
2022/11/21 07:42:53;;;;;;;36.28;24.55;;;;;;;1.79;73.72;100353.98;1740533;81;21047;-83
2022/11/21 07:45:20;;;;;;;39.00;25.02;;;;;;;1.73;73.61;100357.14;1746907;81;21090;-83
2022/11/21 07:47:47;;;;;;;39.70;26.52;;;;;;;1.68;73.58;100361.17;1743768;81;22624;-83
2022/11/21 07:50:14;;;;;;;42.33;26.97;;;;;;;1.62;73.57;100360.86;1752182;81;21064;-83
2022/11/21 07:52:40;;;;;;;39.08;26.20;;;;;;;1.59;73.70;100355.90;1745918;81;21041;-83
2022/11/21 07:55:09;;;;;;;42.35;28.40;;;;;;;1.53;73.63;100358.64;1751230;81;21515;-83
2022/11/21 07:57:35;;;;;;;41.83;27.93;;;;;;;1.50;73.67;100361.47;1748546;81;21694;-83
2022/11/21 08:00:03;;;;;;;43.52;29.42;;;;;;;1.48;73.69;100355.31;1739112;81;21758;-83
2022/11/21 08:02:30;;;;;;;46.15;28.85;;;;;;;1.46;73.63;100352.63;1742285;81;21633;-83
2022/11/21 08:04:56;;;;;;;50.17;30.65;;;;;;;1.44;73.66;100348.17;1742152;81;21103;-82
2022/11/21 08:07:23;;;;;;;49.27;31.17;;;;;;;1.43;73.55;100346.41;1741064;81;20999;-83
2022/11/21 08:09:50;;;;;;;50.17;32.95;;;;;;;1.41;73.51;100348.91;1740371;81;21074;-83
2022/11/21 08:12:17;;;;;;;50.50;33.18;;;;;;;1.29;73.27;100346.51;1748651;81;21874;-83
2022/11/21 08:14:44;;;;;;;49.53;32.13;;;;;;;1.21;73.37;100350.39;1740668;81;21042;-83
2022/11/21 08:17:10;;;;;;;59.42;35.43;;;;;;;1.21;73.56;100348.20;1745815;81;21422;-83
2022/11/21 08:19:39;;;;;;;55.83;34.88;;;;;;;1.23;73.59;100351.36;1742511;81;21057;-83
2022/11/21 08:22:08;;;;;;;54.65;35.80;;;;;;;1.29;73.75;100349.09;1754112;80;21038;-83
2022/11/21 08:24:35;;;;;;;53.13;32.67;;;;;;;1.36;73.79;100349.94;1736080;81;21939;-83
2022/11/21 08:27:04;;;;;;;51.77;33.50;;;;;;;1.45;73.79;100353.45;1761271;80;21292;-83
2022/11/21 08:29:30;;;;;;;49.80;33.58;;;;;;;1.55;73.74;100356.14;1760820;80;21505;-83
2022/11/21 08:31:57;;;;;;;56.80;35.25;;;;;;;1.67;73.73;100361.09;1734681;81;21580;-83
2022/11/21 08:34:24;;;;;;;59.98;38.95;;;;;;;1.73;73.56;100357.55;1735373;81;22253;-83
2022/11/21 08:36:52;;;;;;;65.60;39.45;;;;;;;1.83;73.61;100359.82;1763576;80;21886;-85
2022/11/21 08:39:19;;;;;;;62.78;37.90;;;;;;;1.95;73.55;100356.97;1749805;81;21053;-84
2022/11/21 08:42:04;;;;;;;62.53;40.23;;;;;;;2.09;73.46;100357.31;1749874;80;21746;-83
2022/11/21 08:44:33;;;;;;;63.45;39.40;;;;;;;2.19;73.20;100356.08;1742347;81;21763;-83
2022/11/21 08:47:00;;;;;;;70.60;43.70;;;;;;;2.33;73.22;100360.71;1746609;80;21078;-83
2022/11/21 08:49:27;;;;;;;76.17;46.40;;;;;;;2.54;73.12;100366.11;1720622;81;22528;-83
2022/11/21 08:51:53;;;;;;;78.37;49.53;;;;;;;2.64;72.72;100368.76;1740812;80;21084;-82
2022/11/21 08:54:22;;;;;;;79.45;49.35;;;;;;;2.67;72.39;100365.91;1723215;81;21064;-82
2022/11/21 08:56:50;;;;;;;89.00;52.90;;;;;;;2.72;72.25;100365.74;1732584;81;21433;-83
2022/11/21 08:59:16;;;;;;;90.15;55.78;;;;;;;2.67;71.80;100371.11;1716751;82;21066;-85
2022/11/21 09:01:43;;;;;;;88.42;54.30;;;;;;;2.66;71.86;100370.61;1723900;82;21603;-83
2022/11/21 09:04:10;;;;;;;86.70;53.52;;;;;;;2.75;72.01;100375.80;1719793;81;21533;-83
2022/11/21 09:06:37;;;;;;;91.40;52.35;;;;;;;2.70;71.39;100376.47;1752360;81;21078;-85
2022/11/21 09:09:05;;;;;;;80.47;49.85;;;;;;;2.61;71.37;100375.09;1722227;81;21476;-85
2022/11/21 09:11:32;;;;;;;81.92;50.83;;;;;;;2.57;71.31;100375.34;1751152;80;21133;-85
2022/11/21 09:19:39;;;;;;;89.20;53.75;;;;;;;2.28;70.94;100378.63;1726386;81;21670;-87
2022/11/21 09:22:11;;;;;;;89.83;54.03;;;;;;;2.15;70.98;100381.41;1718097;81;21779;-87
2022/11/21 09:24:38;;;;;;;96.95;57.67;;;;;;;2.02;70.91;100382.45;1730814;81;21481;-86
2022/11/21 09:27:05;;;;;;;103.95;61.00;;;;;;;1.92;71.03;100386.27;1745976;80;21733;-86
2022/11/21 09:29:31;;;;;;;105.00;62.58;;;;;;;1.88;70.96;100386.92;1728986;81;21111;-85
2022/11/21 09:31:58;;;;;;;100.75;60.80;;;;;;;1.71;70.63;100395.09;1718244;81;21460;-88
2022/11/21 09:34:26;;;;;;;99.40;61.83;;;;;;;1.60;70.71;100391.42;1717527;83;21673;-88
2022/11/21 09:36:59;;;;;;;98.92;59.55;;;;;;;1.52;70.72;100397.08;1712633;83;21666;-88
2022/11/21 09:39:33;;;;;;;109.75;61.10;;;;;;;1.50;70.99;100400.38;1740339;81;21798;-88
2022/11/21 09:42:29;;;;;;;104.85;61.25;;;;;;;1.49;70.81;100398.61;1742098;81;21044;-88
2022/11/21 09:45:10;;;;;;;106.05;61.70;;;;;;;1.44;70.70;100403.52;1744818;81;21142;-86
2022/11/21 09:47:41;;;;;;;103.95;61.70;;;;;;;1.35;70.73;100411.70;1741206;81;21051;-86
2022/11/21 09:50:22;;;;;;;105.10;63.55;;;;;;;1.34;70.75;100412.91;1742988;81;21051;-86
2022/11/21 09:52:57;;;;;;;110.40;67.78;;;;;;;1.29;70.67;100408.73;1748944;81;21780;-85
2022/11/21 09:55:43;;;;;;;106.58;63.90;;;;;;;1.15;70.32;100408.38;1744434;81;21043;-82
2022/11/21 09:58:59;;;;;;;102.95;61.65;;;;;;;1.08;70.50;100413.59;1748791;81;21062;-83
2022/11/21 10:01:28;;;;;;;106.87;60.00;;;;;;;1.09;70.57;100410.59;1691204;82;21690;-83
2022/11/21 10:03:55;;;;;;;103.20;61.88;;;;;;;1.05;70.64;100410.86;1741903;81;21050;-83
2022/11/21 10:06:25;;;;;;;104.38;64.45;;;;;;;1.02;70.66;100419.73;1744915;81;21775;-83
2022/11/21 10:09:26;;;;;;;104.15;63.90;;;;;;;0.98;70.65;100413.89;1748864;81;21036;-82
2022/11/21 10:12:41;;;;;;;120.25;69.07;;;;;;;0.97;70.79;100415.56;1747192;81;21113;-83
2022/11/21 10:15:25;;;;;;;112.03;67.47;;;;;;;1.04;70.86;100405.16;1697794;81;21089;-82
2022/11/21 10:18:22;;;;;;;;;;;;;;;1.11;70.77;100409.02;1744622;81;21096;-83
2022/11/21 10:21:14;;;;;;;117.03;68.07;;;;;;;1.15;70.68;100404.08;1764248;80;22408;-85
2022/11/21 10:24:05;;;;;;;119.97;70.42;;;;;;;1.23;70.75;100401.92;1732676;81;21069;-84
2022/11/21 10:26:37;;;;;;;126.53;71.12;;;;;;;1.32;70.69;100402.85;1735885;81;21298;-83
2022/11/21 10:29:37;;;;;;;122.50;70.22;;;;;;;1.28;70.36;100392.70;1744391;81;21073;-85
2022/11/21 10:32:36;;;;;;;114.55;69.62;;;;;;;1.22;70.12;100390.16;1755684;81;21068;-85
2022/11/21 10:35:16;;;;;;;109.83;66.12;;;;;;;1.13;70.24;100382.77;1744996;81;21780;-85
2022/11/21 10:37:52;;;;;;;116.82;68.25;;;;;;;1.21;70.37;100388.39;1750227;81;21637;-85
2022/11/21 10:40:41;;;;;;;105.32;66.57;;;;;;;1.24;70.27;100384.66;1732410;81;22071;-83
2022/11/21 10:46:22;;;;;;;113.80;68.25;;;;;;;1.46;70.17;100390.64;1726664;81;21062;-84
2022/11/21 10:49:01;;;;;;;110.05;65.52;;;;;;;1.43;69.96;100393.09;1718763;82;21101;-84
2022/11/21 10:51:54;;;;;;;106.72;64.17;;;;;;;1.42;69.93;100396.47;1717417;82;21096;-84
2022/11/21 10:54:33;;;;;;;112.83;67.77;;;;;;;1.32;69.88;100401.14;1644403;85;21126;-82
2022/11/21 10:57:13;;;;;;;104.32;63.48;;;;;;;1.34;69.93;100399.94;1639238;85;21783;-83
2022/11/21 10:59:39;;;;;;;104.03;64.45;;;;;;;1.43;70.14;100396.98;1672719;84;21437;-83
2022/11/21 11:02:20;;;;;;;109.40;67.27;;;;;;;1.49;70.12;100387.81;1649796;85;21752;-83
2022/11/21 11:04:47;;;;;;;112.77;66.30;;;;;;;1.54;69.98;100395.88;1651885;85;21117;-83
2022/11/21 11:07:24;;;;;;;107.40;64.95;;;;;;;1.42;69.80;100389.99;1682970;84;21686;-83
2022/11/21 11:09:52;;;;;;;109.07;65.50;;;;;;;1.25;69.61;100393.81;1653054;85;21390;-83
2022/11/21 11:15:22;;;;;;;111.75;67.12;;;;;;;0.98;69.50;100391.86;1672813;84;21786;-83
2022/11/21 11:17:58;;;;;;;109.50;67.05;;;;;;;0.78;69.68;100389.41;1673225;84;21158;-85
2022/11/21 11:20:43;;;;;;;116.65;69.45;;;;;;;0.64;69.74;100392.50;1671458;84;21126;-85
2022/11/21 11:23:24;;;;;;;115.03;70.75;;;;;;;0.52;69.80;100391.34;1674932;84;21089;-85
2022/11/21 11:25:56;;;;;;;117.93;70.37;;;;;;;0.47;69.98;100394.09;1690814;82;21577;-87
2022/11/21 11:28:24;;;;;;;120.87;71.35;;;;;;;0.39;70.10;100392.72;1725710;82;23062;-85
2022/11/21 11:30:53;;;;;;;128.82;73.12;;;;;;;0.36;70.07;100399.91;1717252;82;21053;-85
2022/11/21 11:33:38;;;;;;;117.60;68.40;;;;;;;0.32;70.15;100407.38;1723914;82;21066;-85
2022/11/21 11:36:38;;;;;;;116.88;70.08;;;;;;;0.27;70.18;100411.41;1722502;82;21438;-85
2022/11/21 11:39:41;;;;;;;118.37;70.03;;;;;;;0.24;70.34;100405.63;1725755;82;21436;-85
2022/11/21 11:48:18;;;;;;;117.65;68.10;;;;;;;0.07;70.12;100416.25;1738288;81;21661;-85
2022/11/21 11:51:14;;;;;;;122.67;69.10;;;;;;;-0.08;70.10;100416.60;1736261;81;21094;-85
2022/11/21 11:53:45;;;;;;;116.80;68.30;;;;;;;-0.13;70.24;100421.50;1643682;85;22111;-85
2022/11/21 11:56:25;;;;;;;122.42;72.75;;;;;;;-0.18;70.21;100411.67;1703212;82;21773;-85
2022/11/21 11:59:14;;;;;;;118.45;69.92;;;;;;;-0.27;70.21;100408.09;1728305;82;21050;-86
2022/11/21 12:01:49;;;;;;;131.07;72.95;;;;;;;-0.40;70.14;100416.77;1721362;82;21261;-85